Flight Track Log - Related Links

Times and Time Zones

All times are in EDT time to prevent confusion due to time zone crossing. See the EJA831 flight status page for this flight to view local times or setup timezone preferences in your user account.

Time Position Orientation Groundspeed Altitude Reporting Facility
EDT Latitude Longitude Course Direction KTS MPH feet Rate Location/Type
Fri 10:33:52 AM 21.7722 -72.1647 301° West 383 441 5,600  Level Miami Center
Fri 10:34:52 AM 21.8428 -72.1556 North 235 270 6,400 1,750 Climbing Miami Center
Fri 10:35:52 AM 21.8911 -72.2278 306° West 194 223 9,100 2,850 Climbing Miami Center
Fri 10:36:52 AM 21.9414 -72.3042 305° West 245 282 12,100 2,800 Climbing Miami Center
Fri 10:37:52 AM 21.9894 -72.3786 305° West 282 325 14,700 2,550 Climbing Miami Center
Fri 10:38:52 AM 22.0397 -72.4575 305° West 308 354 17,200 2,250 Climbing Miami Center
Fri 10:39:00 AM 22.1162 -72.7746 301° West  Level Estimated
Fri 10:39:52 AM 22.0919 -72.5364 306° West 321 369 19,200  Level Miami Center
Fri 10:40:52 AM 22.1467 -72.6197 305° West 332 382 21,200 2,000 Climbing Miami Center
Fri 10:41:52 AM 22.2033 -72.7033 306° West 337 388 23,200 1,750 Climbing Miami Center
Fri 10:42:52 AM 22.2597 -72.7889 305° West 343 395 24,700 1,500 Climbing Miami Center
Fri 10:43:52 AM 22.3122 -72.8769 303° West 348 400 26,200 1,500 Climbing Miami Center
Fri 10:44:52 AM 22.3708 -72.9650 306° West 354 407 27,700 1,200 Climbing Miami Center
Fri 10:45:52 AM 22.4125 -73.0356 303° West 354 407 28,600 1,050 Climbing Miami Center
Fri 10:46:52 AM 22.4903 -73.1411 309° West 368 423 29,800 1,100 Climbing Miami Center
Fri 10:47:52 AM 22.5508 -73.2317 306° West 373 429 30,800 1,050 Climbing Miami Center
Fri 10:48:52 AM 22.6075 -73.3267 303° West 373 429 31,900 1,200 Climbing Miami Center
Fri 10:49:52 AM 22.6681 -73.4219 305° West 373 429 33,200 1,400 Climbing Miami Center
Fri 10:50:52 AM 22.7244 -73.5128 304° West 373 429 34,700 1,500 Climbing Miami Center
Fri 10:51:52 AM 22.7828 -73.6014 306° West 367 422 36,200 1,500 Climbing Miami Center
Fri 10:52:52 AM 22.8431 -73.6853 308° West 362 417 37,700 1,400 Climbing Miami Center
Fri 10:53:52 AM 22.8950 -73.7719 303° West 357 411 39,000 1,250 Climbing Miami Center
Fri 10:54:52 AM 22.9508 -73.8542 306° West 347 399 40,200 1,100 Climbing Miami Center
Fri 10:55:52 AM 23.0028 -73.9408 303° West 347 399 41,200 900 Climbing Miami Center
Fri 10:56:52 AM 23.0567 -74.0278 304° West 347 399 42,000 650 Climbing Miami Center
Fri 10:57:52 AM 23.1975 -74.0811 341° North 465 535 42,500 500 Climbing Miami Center
Fri 10:58:52 AM 23.1642 -74.2017 253° West 383 441 43,000 250 Climbing Miami Center
Fri 10:59:52 AM 23.2244 -74.2931 306° West 371 427 43,000  Level Miami Center
Fri 11:00:52 AM 23.2844 -74.3867 305° West 371 427 43,000  Level Miami Center
Fri 11:01:52 AM 23.3444 -74.4831 304° West 377 434 43,000  Level Miami Center
Fri 11:02:52 AM 23.4086 -74.5792 306° West 388 447 43,000  Level Miami Center
Fri 11:03:52 AM 23.4664 -74.6778 303° West 394 453 43,000  Level Miami Center
Fri 11:04:52 AM 23.5306 -74.7764 305° West 394 453 43,000  Level Miami Center
Fri 11:05:52 AM 23.5925 -74.8750 304° West 394 453 43,000  Level Miami Center
Fri 11:06:52 AM 23.6544 -74.9717 305° West 394 453 43,000  Level Miami Center
Fri 11:07:52 AM 23.7161 -75.0706 304° West 394 453 43,000  Level Miami Center
Fri 11:08:52 AM 23.7758 -75.1672 304° West 394 453 43,000  Level Miami Center
Fri 11:09:52 AM 23.8375 -75.2619 305° West 394 453 43,000  Level Miami Center
Fri 11:10:52 AM 23.8969 -75.3611 303° West 394 453 43,000  Level Miami Center
Fri 11:11:52 AM 23.9544 -75.4581 303° West 394 453 43,000  Level Miami Center
Fri 11:12:52 AM 24.0181 -75.5531 306° West 394 453 43,000  Level Miami Center
Fri 11:13:52 AM 24.0753 -75.6481 303° West 394 453 43,000  Level Miami Center
Fri 11:14:52 AM 24.1344 -75.7453 304° West 394 453 43,000  Level Miami Center
Fri 11:15:52 AM 24.1917 -75.8428 303° West 389 448 43,000  Level Miami Center
Fri 11:16:52 AM 24.2508 -75.9358 305° West 389 448 43,000  Level Miami Center
Fri 11:17:52 AM 24.3078 -76.0311 303° West 389 448 43,000  Level Miami Center
Fri 11:18:52 AM 24.3647 -76.1242 304° West 384 442 43,000  Level Miami Center
Fri 11:19:52 AM 24.4194 -76.2175 303° West 374 430 43,000  Level Miami Center
Fri 11:20:52 AM 24.4742 -76.3064 304° West 369 425 43,000  Level Miami Center
Fri 11:21:52 AM 24.5225 -76.3883 303° West 364 419 43,000  Level Miami Center
Fri 11:22:52 AM 24.5792 -76.4794 304° West 364 419 43,000  Level Miami Center
Fri 11:23:52 AM 24.6358 -76.5731 304° West 364 419 43,000  Level Miami Center
Fri 11:24:52 AM 24.6883 -76.6644 302° West 364 419 43,000  Level Miami Center
Fri 11:25:52 AM 24.7258 -76.7672 292° West 364 419 43,000 -550 Level Miami Center
Fri 11:26:52 AM 24.7614 -76.8725 290° West 364 419 41,900 -1,450 Descending Miami Center
Fri 11:27:52 AM 24.8053 -76.9756 295° West 369 425 40,100 -1,800 Descending Miami Center
Fri 11:28:52 AM 24.8681 -77.0672 307° West 369 425 38,300 -1,900 Descending Miami Center
Fri 11:29:52 AM 24.9264 -77.1614 304° West 376 433 36,300 -2,000 Descending Miami Center
Fri 11:30:52 AM 24.9889 -77.2578 306° West 381 438 34,300 -2,000 Descending Miami Center
Fri 11:31:52 AM 25.0533 -77.3567 306° West 381 438 32,300 -2,150 Descending Miami Center
Fri 11:32:52 AM 25.1239 -77.4717 304° West 402 463 30,000 -2,100 Descending Miami Center
Fri 11:33:52 AM 25.1925 -77.5800 305° West 415 478 28,100 -1,000 Descending Miami Center
Fri 11:34:52 AM 25.2547 -77.6792 305° West 415 478 28,000 -50 Descending Miami Center
Fri 11:35:52 AM 25.3189 -77.7806 305° West 415 478 28,000  Level Miami Center
Fri 11:36:52 AM 25.3808 -77.8822 304° West 415 478 28,000  Level Miami Center
Fri 11:37:52 AM 25.4469 -77.9864 305° West 415 478 28,000  Level Miami Center
Fri 11:38:52 AM 25.5131 -78.0908 305° West 415 478 28,000  Level Miami Center
Fri 11:39:52 AM 25.5769 -78.1950 304° West 420 483 28,000  Level Miami Center
Fri 11:40:52 AM 25.6447 -78.2994 306° West 420 483 28,000  Level Miami Center
Fri 11:41:52 AM 25.7086 -78.4042 304° West 420 483 28,000 -950 Level Miami Center
Fri 11:42:52 AM 25.7722 -78.5086 304° West 420 483 26,100 -2,000 Descending Miami Center
Fri 11:43:52 AM 25.8358 -78.6067 306° West 410 472 24,000 -2,100 Descending Miami Center
Fri 11:44:52 AM 25.8931 -78.7114 301° West 403 464 21,900 -1,950 Descending Miami Center
Fri 11:45:52 AM 25.9544 -78.8069 306° West 392 451 20,100 -1,000 Descending Miami Center
Fri 11:46:52 AM 26.0075 -78.9028 302° West 379 436 19,900 -900 Descending Miami Center
Fri 11:47:52 AM 26.0586 -78.9844 305° West 373 429 18,300 -1,650 Descending Miami Center
Fri 11:48:52 AM 26.0842 -79.0892 285° West 361 415 16,600 -1,750 Descending Miami Center
Fri 11:49:52 AM 26.0764 -79.1953 265° West 344 396 14,800 -2,100 Descending Miami Center
Fri 11:50:52 AM 26.0953 -79.3044 281° West 344 396 12,400 -2,300 Descending Miami Center
Fri 11:51:52 AM 26.1656 -79.3614 324° Northwest 310 357 10,200 -2,200 Descending Miami Center
Fri 11:52:52 AM 26.2314 -79.4114 326° Northwest 296 341 8,000 -2,050 Descending Miami Center
Fri 11:53:52 AM 26.2789 -79.4519 323° Northwest 255 293 6,100 -1,500 Descending Miami Center
Fri 11:54:52 AM 26.3425 -79.5042 324° Northwest 247 284 5,000 -550 Descending Miami Center
Fri 11:55:52 AM 26.3853 -79.5656 308° West 256 295 5,000 -50 Level Miami Center
Fri 11:56:52 AM 26.4278 -79.6408 302° West 275 316 4,900 -500 Descending Miami Center
Fri 11:57:52 AM 26.4642 -79.7042 303° West 275 316 4,000 -450 Descending Miami Center
Fri 11:58:52 AM 26.5086 -79.7819 303° West 270 311 4,000  Level Miami Center
Fri 11:59:52 AM 26.5450 -79.8456 303° West 270 311 4,000  Level Miami Center
Fri 12:00:52 PM 26.5831 -79.9231 299° West 270 311 4,000  Level Miami Center
Fri 12:01:52 PM 26.5856 -79.9928 272° West 257 296 4,000 -300 Level Miami Center
Fri 12:02:52 PM 26.5922 -80.0814 275° West 262 302 3,400 -600 Descending Miami Center
Fri 12:04:00 PM 26.6667 -80.0833 299° West  Level FlightAware Approximate
Fri 12:11:00 PM 26.6832 -80.0956 299° West  Level Estimated
Fri 12:12:00 PM 26.6832 -80.0956 299° West  Level Estimated
Fri 12:13:00 PM 26.6832 -80.0956 299° West  Level Estimated
Fri 12:14:00 PM 26.6832 -80.0956 299° West  Level Estimated
Fri 12:15:00 PM 26.6832 -80.0956 299° West  Level Estimated
Fri 12:16:00 PM 26.6832 -80.0956 299° West  Level Estimated
Fri 12:17:00 PM 26.6832 -80.0956 299° West  Level Estimated

Login

Don't have an account? Register now (free) for customized features, flight alerts, and more!